sensor_id;sensor_type;location;lat;lon;timestamp;temperature;humidity
19561;DHT22;9927;47.792;10.616;2023-09-30T03:01:51;17.70;99.90
19561;DHT22;9927;47.792;10.616;2023-09-30T03:04:19;17.80;99.90
19561;DHT22;9927;47.792;10.616;2023-09-30T03:06:46;17.70;99.90
19561;DHT22;9927;47.792;10.616;2023-09-30T03:09:15;17.70;99.90
19561;DHT22;9927;47.792;10.616;2023-09-30T03:11:43;17.70;99.90
19561;DHT22;9927;47.792;10.616;2023-09-30T03:14:10;17.70;99.90
19561;DHT22;9927;47.792;10.616;2023-09-30T03:16:39;17.60;99.90
19561;DHT22;9927;47.792;10.616;2023-09-30T03:19:08;17.60;99.90
19561;DHT22;9927;47.792;10.616;2023-09-30T03:21:35;17.60;99.90
19561;DHT22;9927;47.792;10.616;2023-09-30T03:24:03;17.60;99.90
19561;DHT22;9927;47.792;10.616;2023-09-30T03:26:31;17.60;99.90
19561;DHT22;9927;47.792;10.616;2023-09-30T03:28:59;17.60;99.90
19561;DHT22;9927;47.792;10.616;2023-09-30T03:31:26;17.60;99.90
19561;DHT22;9927;47.792;10.616;2023-09-30T03:33:53;17.50;99.90
19561;DHT22;9927;47.792;10.616;2023-09-30T03:36:22;17.50;99.90
19561;DHT22;9927;47.792;10.616;2023-09-30T03:38:54;17.50;99.90
19561;DHT22;9927;47.792;10.616;2023-09-30T03:41:26;17.50;99.90
19561;DHT22;9927;47.792;10.616;2023-09-30T03:43:53;17.50;99.90
19561;DHT22;9927;47.792;10.616;2023-09-30T03:46:21;17.50;99.90
19561;DHT22;9927;47.792;10.616;2023-09-30T03:48:48;17.50;99.90
19561;DHT22;9927;47.792;10.616;2023-09-30T03:51:15;17.50;99.90
19561;DHT22;9927;47.792;10.616;2023-09-30T03:53:44;17.50;99.90
19561;DHT22;9927;47.792;10.616;2023-09-30T03:56:12;17.50;99.90
19561;DHT22;9927;47.792;10.616;2023-09-30T03:58:40;17.50;99.90
19561;DHT22;9927;47.792;10.616;2023-09-30T04:01:09;17.50;99.90
19561;DHT22;9927;47.792;10.616;2023-09-30T04:03:44;17.50;99.90
19561;DHT22;9927;47.792;10.616;2023-09-30T04:06:11;17.50;99.90
19561;DHT22;9927;47.792;10.616;2023-09-30T04:08:39;17.50;99.90
19561;DHT22;9927;47.792;10.616;2023-09-30T04:11:06;17.50;99.90
19561;DHT22;9927;47.792;10.616;2023-09-30T04:13:33;17.50;99.90
19561;DHT22;9927;47.792;10.616;2023-09-30T04:16:00;17.50;99.90
19561;DHT22;9927;47.792;10.616;2023-09-30T04:18:28;17.40;99.90
19561;DHT22;9927;47.792;10.616;2023-09-30T04:20:55;17.40;99.90
19561;DHT22;9927;47.792;10.616;2023-09-30T04:23:22;17.40;99.90
19561;DHT22;9927;47.792;10.616;2023-09-30T04:25:50;17.40;99.90
19561;DHT22;9927;47.792;10.616;2023-09-30T04:28:17;17.40;99.90
19561;DHT22;9927;47.792;10.616;2023-09-30T04:30:48;17.40;99.90
19561;DHT22;9927;47.792;10.616;2023-09-30T04:33:16;17.40;99.90
19561;DHT22;9927;47.792;10.616;2023-09-30T04:35:47;17.40;99.90
19561;DHT22;9927;47.792;10.616;2023-09-30T04:38:14;17.40;99.90
19561;DHT22;9927;47.792;10.616;2023-09-30T04:40:42;17.40;99.90
19561;DHT22;9927;47.792;10.616;2023-09-30T04:43:11;17.40;99.90
19561;DHT22;9927;47.792;10.616;2023-09-30T04:45:38;17.50;99.90
19561;DHT22;9927;47.792;10.616;2023-09-30T04:48:06;17.30;99.90
19561;DHT22;9927;47.792;10.616;2023-09-30T04:50:34;17.30;99.90
19561;DHT22;9927;47.792;10.616;2023-09-30T04:53:01;17.30;99.90
19561;DHT22;9927;47.792;10.616;2023-09-30T04:55:29;17.30;99.90
19561;DHT22;9927;47.792;10.616;2023-09-30T04:57:56;17.20;99.90
19561;DHT22;9927;47.792;10.616;2023-09-30T05:00:23;17.20;99.90
19561;DHT22;9927;47.792;10.616;2023-09-30T05:02:55;17.20;99.90
19561;DHT22;9927;47.792;10.616;2023-09-30T05:05:23;17.20;99.90
19561;DHT22;9927;47.792;10.616;2023-09-30T05:07:51;17.20;99.90
19561;DHT22;9927;47.792;10.616;2023-09-30T05:10:18;17.30;99.90
19561;DHT22;9927;47.792;10.616;2023-09-30T05:12:46;17.20;99.90
19561;DHT22;9927;47.792;10.616;2023-09-30T05:15:15;17.20;99.90
19561;DHT22;9927;47.792;10.616;2023-09-30T05:17:45;17.30;99.90
19561;DHT22;9927;47.792;10.616;2023-09-30T05:20:13;17.20;99.90
19561;DHT22;9927;47.792;10.616;2023-09-30T05:22:40;17.20;99.90
19561;DHT22;9927;47.792;10.616;2023-09-30T05:25:09;17.20;99.90
19561;DHT22;9927;47.792;10.616;2023-09-30T05:27:37;17.20;99.90
19561;DHT22;9927;47.792;10.616;2023-09-30T05:30:06;17.20;99.90
19561;DHT22;9927;47.792;10.616;2023-09-30T05:32:33;17.20;99.90
19561;DHT22;9927;47.792;10.616;2023-09-30T05:35:01;17.20;99.90
19561;DHT22;9927;47.792;10.616;2023-09-30T05:37:32;17.10;99.90
19561;DHT22;9927;47.792;10.616;2023-09-30T05:39:59;17.10;99.90
19561;DHT22;9927;47.792;10.616;2023-09-30T05:42:27;17.20;99.90
19561;DHT22;9927;47.792;10.616;2023-09-30T05:44:55;17.20;99.90
19561;DHT22;9927;47.792;10.616;2023-09-30T05:47:22;17.20;99.90
19561;DHT22;9927;47.792;10.616;2023-09-30T05:49:49;17.20;99.90
19561;DHT22;9927;47.792;10.616;2023-09-30T05:52:16;17.20;99.90
19561;DHT22;9927;47.792;10.616;2023-09-30T05:54:44;17.20;99.90
19561;DHT22;9927;47.792;10.616;2023-09-30T05:57:11;17.20;99.90
19561;DHT22;9927;47.792;10.616;2023-09-30T05:59:38;17.20;99.90
19561;DHT22;9927;47.792;10.616;2023-09-30T06:02:05;17.20;99.90
19561;DHT22;9927;47.792;10.616;2023-09-30T06:04:32;17.20;99.90
19561;DHT22;9927;47.792;10.616;2023-09-30T06:07:00;17.10;99.90
19561;DHT22;9927;47.792;10.616;2023-09-30T06:09:27;17.10;99.90
19561;DHT22;9927;47.792;10.616;2023-09-30T06:11:58;17.10;99.90
19561;DHT22;9927;47.792;10.616;2023-09-30T06:14:26;17.10;99.90
19561;DHT22;9927;47.792;10.616;2023-09-30T06:16:55;17.10;99.90
19561;DHT22;9927;47.792;10.616;2023-09-30T06:19:23;17.20;99.90
19561;DHT22;9927;47.792;10.616;2023-09-30T06:21:50;17.30;99.90
19561;DHT22;9927;47.792;10.616;2023-09-30T06:24:17;17.30;99.90
19561;DHT22;9927;47.792;10.616;2023-09-30T06:26:47;17.40;99.90
19561;DHT22;9927;47.792;10.616;2023-09-30T06:29:18;17.40;99.90
19561;DHT22;9927;47.792;10.616;2023-09-30T06:31:46;17.40;99.90
19561;DHT22;9927;47.792;10.616;2023-09-30T06:34:14;17.40;99.90
19561;DHT22;9927;47.792;10.616;2023-09-30T06:36:41;17.30;99.90
19561;DHT22;9927;47.792;10.616;2023-09-30T06:39:08;17.30;99.90
19561;DHT22;9927;47.792;10.616;2023-09-30T06:41:35;17.30;99.90
19561;DHT22;9927;47.792;10.616;2023-09-30T06:44:03;17.30;99.90
19561;DHT22;9927;47.792;10.616;2023-09-30T06:46:31;17.20;99.90
19561;DHT22;9927;47.792;10.616;2023-09-30T06:48:58;17.30;99.90
19561;DHT22;9927;47.792;10.616;2023-09-30T06:51:26;17.30;99.90
19561;DHT22;9927;47.792;10.616;2023-09-30T06:53:54;17.40;99.90
19561;DHT22;9927;47.792;10.616;2023-09-30T06:56:21;17.30;99.90
19561;DHT22;9927;47.792;10.616;2023-09-30T06:58:48;17.20;99.90
19561;DHT22;9927;47.792;10.616;2023-09-30T07:01:16;17.20;99.90
19561;DHT22;9927;47.792;10.616;2023-09-30T07:03:46;17.30;99.90
19561;DHT22;9927;47.792;10.616;2023-09-30T07:06:22;17.40;99.90
19561;DHT22;9927;47.792;10.616;2023-09-30T07:08:49;17.40;99.90
19561;DHT22;9927;47.792;10.616;2023-09-30T07:11:17;17.50;99.90
19561;DHT22;9927;47.792;10.616;2023-09-30T07:13:44;17.20;99.90
19561;DHT22;9927;47.792;10.616;2023-09-30T07:16:11;17.10;99.90
19561;DHT22;9927;47.792;10.616;2023-09-30T07:18:38;17.00;99.90
19561;DHT22;9927;47.792;10.616;2023-09-30T07:21:06;16.90;99.90
19561;DHT22;9927;47.792;10.616;2023-09-30T07:23:33;17.00;99.90
19561;DHT22;9927;47.792;10.616;2023-09-30T07:26:00;17.20;99.90
19561;DHT22;9927;47.792;10.616;2023-09-30T07:28:27;17.30;99.90
19561;DHT22;9927;47.792;10.616;2023-09-30T07:30:55;17.40;99.90
19561;DHT22;9927;47.792;10.616;2023-09-30T07:33:22;17.50;99.90
19561;DHT22;9927;47.792;10.616;2023-09-30T07:35:50;17.50;99.90
19561;DHT22;9927;47.792;10.616;2023-09-30T07:38:17;17.40;99.90
19561;DHT22;9927;47.792;10.616;2023-09-30T07:40:45;17.40;99.90
19561;DHT22;9927;47.792;10.616;2023-09-30T07:43:12;17.40;99.90
19561;DHT22;9927;47.792;10.616;2023-09-30T07:45:39;17.50;99.90
19561;DHT22;9927;47.792;10.616;2023-09-30T07:48:07;17.60;99.90
19561;DHT22;9927;47.792;10.616;2023-09-30T07:50:36;17.90;99.90
19561;DHT22;9927;47.792;10.616;2023-09-30T07:53:05;18.00;99.90
19561;DHT22;9927;47.792;10.616;2023-09-30T07:55:33;18.00;99.90
19561;DHT22;9927;47.792;10.616;2023-09-30T07:58:00;18.30;99.90
19561;DHT22;9927;47.792;10.616;2023-09-30T08:00:28;18.40;99.90
19561;DHT22;9927;47.792;10.616;2023-09-30T08:02:55;18.30;99.90
19561;DHT22;9927;47.792;10.616;2023-09-30T08:05:22;18.40;99.90
19561;DHT22;9927;47.792;10.616;2023-09-30T08:07:50;18.40;99.90
19561;DHT22;9927;47.792;10.616;2023-09-30T08:10:17;18.50;99.90
19561;DHT22;9927;47.792;10.616;2023-09-30T08:12:44;18.50;99.90
19561;DHT22;9927;47.792;10.616;2023-09-30T08:15:15;18.40;99.90
19561;DHT22;9927;47.792;10.616;2023-09-30T08:17:43;18.20;99.90
19561;DHT22;9927;47.792;10.616;2023-09-30T08:20:10;18.20;99.90
19561;DHT22;9927;47.792;10.616;2023-09-30T08:22:39;18.10;99.90
19561;DHT22;9927;47.792;10.616;2023-09-30T08:25:07;18.30;99.90
19561;DHT22;9927;47.792;10.616;2023-09-30T08:27:36;18.20;99.90
19561;DHT22;9927;47.792;10.616;2023-09-30T08:30:04;18.10;99.90
19561;DHT22;9927;47.792;10.616;2023-09-30T08:32:34;18.30;99.90
19561;DHT22;9927;47.792;10.616;2023-09-30T08:35:04;18.50;99.90
19561;DHT22;9927;47.792;10.616;2023-09-30T08:37:31;18.80;99.90
19561;DHT22;9927;47.792;10.616;2023-09-30T08:39:59;19.20;99.90
19561;DHT22;9927;47.792;10.616;2023-09-30T08:42:27;19.50;99.90
19561;DHT22;9927;47.792;10.616;2023-09-30T08:45:00;19.60;99.90
19561;DHT22;9927;47.792;10.616;2023-09-30T08:47:28;19.60;99.90
19561;DHT22;9927;47.792;10.616;2023-09-30T08:49:59;19.60;99.90
19561;DHT22;9927;47.792;10.616;2023-09-30T08:52:33;19.50;99.90
19561;DHT22;9927;47.792;10.616;2023-09-30T08:55:10;19.50;99.90
19561;DHT22;9927;47.792;10.616;2023-09-30T08:57:41;19.50;99.90
19561;DHT22;9927;47.792;10.616;2023-09-30T09:00:11;19.50;99.90
19561;DHT22;9927;47.792;10.616;2023-09-30T09:02:41;19.40;99.90
19561;DHT22;9927;47.792;10.616;2023-09-30T09:05:09;19.70;99.90
19561;DHT22;9927;47.792;10.616;2023-09-30T09:07:37;19.90;99.90
19561;DHT22;9927;47.792;10.616;2023-09-30T09:10:07;19.90;99.90
19561;DHT22;9927;47.792;10.616;2023-09-30T09:12:37;19.50;99.90
19561;DHT22;9927;47.792;10.616;2023-09-30T09:15:07;19.70;99.90
19561;DHT22;9927;47.792;10.616;2023-09-30T09:17:42;19.80;99.90
19561;DHT22;9927;47.792;10.616;2023-09-30T09:20:11;19.80;99.90
19561;DHT22;9927;47.792;10.616;2023-09-30T09:22:42;19.90;99.90
19561;DHT22;9927;47.792;10.616;2023-09-30T09:25:11;20.30;99.90
19561;DHT22;9927;47.792;10.616;2023-09-30T09:27:38;20.50;99.90
19561;DHT22;9927;47.792;10.616;2023-09-30T09:33:05;20.40;99.90
19561;DHT22;9927;47.792;10.616;2023-09-30T09:35:34;20.40;99.90
19561;DHT22;9927;47.792;10.616;2023-09-30T09:38:06;20.30;99.90
19561;DHT22;9927;47.792;10.616;2023-09-30T09:40:35;20.20;99.90
19561;DHT22;9927;47.792;10.616;2023-09-30T09:43:05;20.10;99.90
19561;DHT22;9927;47.792;10.616;2023-09-30T09:45:35;20.10;99.90
19561;DHT22;9927;47.792;10.616;2023-09-30T09:48:04;19.90;99.90
19561;DHT22;9927;47.792;10.616;2023-09-30T09:50:32;20.00;99.90
19561;DHT22;9927;47.792;10.616;2023-09-30T09:53:00;20.00;99.90
19561;DHT22;9927;47.792;10.616;2023-09-30T09:55:27;19.90;99.90
19561;DHT22;9927;47.792;10.616;2023-09-30T09:57:56;20.00;99.90
19561;DHT22;9927;47.792;10.616;2023-09-30T10:00:26;19.90;99.90
19561;DHT22;9927;47.792;10.616;2023-09-30T10:02:53;19.80;99.90
19561;DHT22;9927;47.792;10.616;2023-09-30T10:05:21;19.90;99.90
19561;DHT22;9927;47.792;10.616;2023-09-30T10:08:00;19.90;99.90
19561;DHT22;9927;47.792;10.616;2023-09-30T10:10:29;20.40;99.90
19561;DHT22;9927;47.792;10.616;2023-09-30T10:12:57;20.60;99.90
19561;DHT22;9927;47.792;10.616;2023-09-30T10:18:04;20.90;99.90
19561;DHT22;9927;47.792;10.616;2023-09-30T10:20:33;21.10;99.90
19561;DHT22;9927;47.792;10.616;2023-09-30T10:25:46;21.00;99.90
19561;DHT22;9927;47.792;10.616;2023-09-30T10:28:42;21.20;99.90
19561;DHT22;9927;47.792;10.616;2023-09-30T10:31:21;21.20;99.90
19561;DHT22;9927;47.792;10.616;2023-09-30T10:36:29;21.30;99.90
19561;DHT22;9927;47.792;10.616;2023-09-30T10:38:58;21.00;99.90
19561;DHT22;9927;47.792;10.616;2023-09-30T10:46:58;21.00;99.90
19561;DHT22;9927;47.792;10.616;2023-09-30T10:51:54;21.20;99.90
19561;DHT22;9927;47.792;10.616;2023-09-30T10:54:30;21.10;99.90
19561;DHT22;9927;47.792;10.616;2023-09-30T10:56:59;20.90;99.90
19561;DHT22;9927;47.792;10.616;2023-09-30T10:59:30;20.90;99.90
19561;DHT22;9927;47.792;10.616;2023-09-30T11:01:58;20.80;99.90
19561;DHT22;9927;47.792;10.616;2023-09-30T11:04:26;20.60;99.90
19561;DHT22;9927;47.792;10.616;2023-09-30T11:06:56;20.40;99.90
19561;DHT22;9927;47.792;10.616;2023-09-30T11:09:25;20.30;99.90
19561;DHT22;9927;47.792;10.616;2023-09-30T11:11:53;19.90;99.90
19561;DHT22;9927;47.792;10.616;2023-09-30T11:14:22;19.80;99.90
19561;DHT22;9927;47.792;10.616;2023-09-30T11:16:55;19.60;99.90
19561;DHT22;9927;47.792;10.616;2023-09-30T11:19:23;19.60;99.90
19561;DHT22;9927;47.792;10.616;2023-09-30T11:21:54;19.50;99.90
19561;DHT22;9927;47.792;10.616;2023-09-30T11:24:22;19.50;99.90
19561;DHT22;9927;47.792;10.616;2023-09-30T11:26:53;20.00;99.90
19561;DHT22;9927;47.792;10.616;2023-09-30T11:29:20;20.20;99.90
19561;DHT22;9927;47.792;10.616;2023-09-30T11:31:49;20.30;99.90
19561;DHT22;9927;47.792;10.616;2023-09-30T11:34:18;20.30;99.90
19561;DHT22;9927;47.792;10.616;2023-09-30T11:36:53;20.40;99.90
19561;DHT22;9927;47.792;10.616;2023-09-30T11:39:30;20.70;99.90
19561;DHT22;9927;47.792;10.616;2023-09-30T11:41:58;20.90;99.90
19561;DHT22;9927;47.792;10.616;2023-09-30T11:44:25;21.00;99.90
19561;DHT22;9927;47.792;10.616;2023-09-30T11:47:02;21.20;99.90
19561;DHT22;9927;47.792;10.616;2023-09-30T11:49:37;21.10;99.90
19561;DHT22;9927;47.792;10.616;2023-09-30T11:52:08;20.90;99.90
19561;DHT22;9927;47.792;10.616;2023-09-30T11:54:41;20.80;99.90
19561;DHT22;9927;47.792;10.616;2023-09-30T11:57:13;20.70;99.90
19561;DHT22;9927;47.792;10.616;2023-09-30T11:59:45;20.50;99.90
19561;DHT22;9927;47.792;10.616;2023-09-30T12:02:14;20.50;99.90
19561;DHT22;9927;47.792;10.616;2023-09-30T12:04:45;20.30;99.90
19561;DHT22;9927;47.792;10.616;2023-09-30T12:07:15;20.30;99.90
19561;DHT22;9927;47.792;10.616;2023-09-30T12:09:42;20.20;99.90
19561;DHT22;9927;47.792;10.616;2023-09-30T12:12:10;20.10;99.90
19561;DHT22;9927;47.792;10.616;2023-09-30T12:14:42;20.00;99.90
19561;DHT22;9927;47.792;10.616;2023-09-30T12:17:09;20.00;99.90
19561;DHT22;9927;47.792;10.616;2023-09-30T12:19:39;20.00;99.90
19561;DHT22;9927;47.792;10.616;2023-09-30T12:22:07;20.00;99.90
19561;DHT22;9927;47.792;10.616;2023-09-30T12:24:35;19.90;99.90
19561;DHT22;9927;47.792;10.616;2023-09-30T12:27:02;20.00;99.90
19561;DHT22;9927;47.792;10.616;2023-09-30T12:29:29;20.20;99.90
19561;DHT22;9927;47.792;10.616;2023-09-30T12:31:57;20.40;99.90
19561;DHT22;9927;47.792;10.616;2023-09-30T12:34:24;20.50;99.90
19561;DHT22;9927;47.792;10.616;2023-09-30T12:36:53;20.50;99.90
19561;DHT22;9927;47.792;10.616;2023-09-30T12:39:21;20.60;99.90
19561;DHT22;9927;47.792;10.616;2023-09-30T12:41:53;20.90;99.90
19561;DHT22;9927;47.792;10.616;2023-09-30T12:44:20;20.90;99.90
19561;DHT22;9927;47.792;10.616;2023-09-30T12:46:47;21.00;99.90
19561;DHT22;9927;47.792;10.616;2023-09-30T12:49:15;21.10;99.90
19561;DHT22;9927;47.792;10.616;2023-09-30T12:51:42;21.10;99.90
19561;DHT22;9927;47.792;10.616;2023-09-30T12:54:09;21.30;99.90
19561;DHT22;9927;47.792;10.616;2023-09-30T12:56:38;21.50;99.90
19561;DHT22;9927;47.792;10.616;2023-09-30T12:59:06;21.60;99.90
19561;DHT22;9927;47.792;10.616;2023-09-30T13:01:33;21.30;99.90
19561;DHT22;9927;47.792;10.616;2023-09-30T13:04:02;21.10;99.90
19561;DHT22;9927;47.792;10.616;2023-09-30T13:06:30;21.00;99.90
19561;DHT22;9927;47.792;10.616;2023-09-30T13:08:59;21.10;99.90
19561;DHT22;9927;47.792;10.616;2023-09-30T13:11:27;21.10;99.90
19561;DHT22;9927;47.792;10.616;2023-09-30T13:13:55;20.70;99.90
19561;DHT22;9927;47.792;10.616;2023-09-30T13:16:22;20.60;99.90
19561;DHT22;9927;47.792;10.616;2023-09-30T13:18:50;20.50;99.90
19561;DHT22;9927;47.792;10.616;2023-09-30T13:21:19;20.30;99.90
19561;DHT22;9927;47.792;10.616;2023-09-30T13:23:47;20.20;99.90
19561;DHT22;9927;47.792;10.616;2023-09-30T13:26:14;20.10;99.90
19561;DHT22;9927;47.792;10.616;2023-09-30T13:28:41;20.20;99.90
19561;DHT22;9927;47.792;10.616;2023-09-30T13:31:09;20.50;99.90
19561;DHT22;9927;47.792;10.616;2023-09-30T13:33:36;20.70;99.90
19561;DHT22;9927;47.792;10.616;2023-09-30T13:36:04;20.80;99.90
19561;DHT22;9927;47.792;10.616;2023-09-30T13:38:32;20.60;99.90
19561;DHT22;9927;47.792;10.616;2023-09-30T13:41:00;20.50;99.90
19561;DHT22;9927;47.792;10.616;2023-09-30T13:43:28;20.50;99.90
19561;DHT22;9927;47.792;10.616;2023-09-30T13:45:56;20.50;99.90
19561;DHT22;9927;47.792;10.616;2023-09-30T13:48:23;20.50;99.90
19561;DHT22;9927;47.792;10.616;2023-09-30T13:50:52;20.40;99.90
19561;DHT22;9927;47.792;10.616;2023-09-30T13:53:19;20.50;99.90
19561;DHT22;9927;47.792;10.616;2023-09-30T13:55:46;20.50;99.90
19561;DHT22;9927;47.792;10.616;2023-09-30T13:58:14;20.50;99.90
19561;DHT22;9927;47.792;10.616;2023-09-30T14:00:46;20.50;99.90
19561;DHT22;9927;47.792;10.616;2023-09-30T14:03:15;20.50;99.90
19561;DHT22;9927;47.792;10.616;2023-09-30T14:05:42;20.50;99.90
19561;DHT22;9927;47.792;10.616;2023-09-30T14:08:11;20.50;99.90
19561;DHT22;9927;47.792;10.616;2023-09-30T14:10:39;20.40;99.90
19561;DHT22;9927;47.792;10.616;2023-09-30T14:13:06;20.40;99.90
19561;DHT22;9927;47.792;10.616;2023-09-30T14:15:33;20.40;99.90
19561;DHT22;9927;47.792;10.616;2023-09-30T14:18:00;20.20;99.90
19561;DHT22;9927;47.792;10.616;2023-09-30T14:20:29;20.20;99.90
19561;DHT22;9927;47.792;10.616;2023-09-30T14:22:57;20.30;99.90
19561;DHT22;9927;47.792;10.616;2023-09-30T14:25:24;20.20;99.90
19561;DHT22;9927;47.792;10.616;2023-09-30T14:27:52;20.10;99.90
19561;DHT22;9927;47.792;10.616;2023-09-30T14:30:19;20.10;99.90
19561;DHT22;9927;47.792;10.616;2023-09-30T14:32:48;20.10;99.90
19561;DHT22;9927;47.792;10.616;2023-09-30T14:35:15;20.10;99.90
19561;DHT22;9927;47.792;10.616;2023-09-30T14:37:42;20.10;99.90
19561;DHT22;9927;47.792;10.616;2023-09-30T14:40:10;20.10;99.90
19561;DHT22;9927;47.792;10.616;2023-09-30T14:42:38;20.30;99.90
19561;DHT22;9927;47.792;10.616;2023-09-30T14:45:06;20.30;99.90
19561;DHT22;9927;47.792;10.616;2023-09-30T14:47:34;20.20;99.90
19561;DHT22;9927;47.792;10.616;2023-09-30T14:50:01;20.00;99.90
19561;DHT22;9927;47.792;10.616;2023-09-30T14:52:29;20.00;99.90
19561;DHT22;9927;47.792;10.616;2023-09-30T14:54:57;19.90;99.90
19561;DHT22;9927;47.792;10.616;2023-09-30T14:57:25;19.90;99.90
19561;DHT22;9927;47.792;10.616;2023-09-30T14:59:52;19.80;99.90
19561;DHT22;9927;47.792;10.616;2023-09-30T15:02:19;19.80;99.90
19561;DHT22;9927;47.792;10.616;2023-09-30T15:04:47;19.80;99.90
19561;DHT22;9927;47.792;10.616;2023-09-30T15:07:15;19.80;99.90
19561;DHT22;9927;47.792;10.616;2023-09-30T15:09:42;19.80;99.90
19561;DHT22;9927;47.792;10.616;2023-09-30T15:12:10;19.80;99.90
19561;DHT22;9927;47.792;10.616;2023-09-30T15:14:37;19.90;99.90
19561;DHT22;9927;47.792;10.616;2023-09-30T15:17:04;19.80;99.90
19561;DHT22;9927;47.792;10.616;2023-09-30T15:19:32;19.80;99.90
19561;DHT22;9927;47.792;10.616;2023-09-30T15:22:00;19.70;99.90
19561;DHT22;9927;47.792;10.616;2023-09-30T15:24:27;19.60;99.90
19561;DHT22;9927;47.792;10.616;2023-09-30T15:26:54;19.60;99.90
19561;DHT22;9927;47.792;10.616;2023-09-30T15:29:22;19.40;99.90
19561;DHT22;9927;47.792;10.616;2023-09-30T15:31:49;19.40;99.90
19561;DHT22;9927;47.792;10.616;2023-09-30T15:34:17;19.40;99.90
19561;DHT22;9927;47.792;10.616;2023-09-30T15:36:44;19.40;99.90
19561;DHT22;9927;47.792;10.616;2023-09-30T15:39:12;19.50;99.90
19561;DHT22;9927;47.792;10.616;2023-09-30T15:41:39;19.50;99.90
19561;DHT22;9927;47.792;10.616;2023-09-30T15:44:06;19.50;99.90
19561;DHT22;9927;47.792;10.616;2023-09-30T15:46:33;19.50;99.90
19561;DHT22;9927;47.792;10.616;2023-09-30T15:49:01;19.30;99.90
19561;DHT22;9927;47.792;10.616;2023-09-30T15:51:28;19.40;99.90
19561;DHT22;9927;47.792;10.616;2023-09-30T15:53:55;19.20;99.90
19561;DHT22;9927;47.792;10.616;2023-09-30T15:56:24;19.10;99.90
19561;DHT22;9927;47.792;10.616;2023-09-30T15:58:52;19.00;99.90
19561;DHT22;9927;47.792;10.616;2023-09-30T16:01:19;19.20;99.90
19561;DHT22;9927;47.792;10.616;2023-09-30T16:03:46;19.20;99.90
19561;DHT22;9927;47.792;10.616;2023-09-30T16:06:14;19.00;99.90
19561;DHT22;9927;47.792;10.616;2023-09-30T16:08:43;19.00;99.90
19561;DHT22;9927;47.792;10.616;2023-09-30T16:11:10;19.00;99.90
19561;DHT22;9927;47.792;10.616;2023-09-30T16:13:37;18.90;99.90
19561;DHT22;9927;47.792;10.616;2023-09-30T16:16:04;18.80;99.90
19561;DHT22;9927;47.792;10.616;2023-09-30T16:18:32;18.70;99.90
19561;DHT22;9927;47.792;10.616;2023-09-30T16:21:00;18.70;99.90
19561;DHT22;9927;47.792;10.616;2023-09-30T16:23:27;18.80;99.90
19561;DHT22;9927;47.792;10.616;2023-09-30T16:25:55;18.80;99.90
19561;DHT22;9927;47.792;10.616;2023-09-30T16:28:22;18.80;99.90
19561;DHT22;9927;47.792;10.616;2023-09-30T16:30:49;18.80;99.90
19561;DHT22;9927;47.792;10.616;2023-09-30T16:33:16;18.80;99.90
19561;DHT22;9927;47.792;10.616;2023-09-30T16:35:52;18.80;99.90
19561;DHT22;9927;47.792;10.616;2023-09-30T16:38:21;18.80;99.90
19561;DHT22;9927;47.792;10.616;2023-09-30T16:40:48;18.80;99.90
19561;DHT22;9927;47.792;10.616;2023-09-30T16:43:16;18.70;99.90
19561;DHT22;9927;47.792;10.616;2023-09-30T16:45:47;18.70;99.90
19561;DHT22;9927;47.792;10.616;2023-09-30T16:48:16;18.70;99.90
19561;DHT22;9927;47.792;10.616;2023-09-30T16:50:43;18.70;99.90
19561;DHT22;9927;47.792;10.616;2023-09-30T16:53:11;18.70;99.90
19561;DHT22;9927;47.792;10.616;2023-09-30T16:55:38;18.60;99.90
19561;DHT22;9927;47.792;10.616;2023-09-30T16:58:06;18.60;99.90
19561;DHT22;9927;47.792;10.616;2023-09-30T17:00:34;18.40;99.90
19561;DHT22;9927;47.792;10.616;2023-09-30T17:03:02;18.40;99.90
19561;DHT22;9927;47.792;10.616;2023-09-30T17:05:36;18.30;99.90
19561;DHT22;9927;47.792;10.616;2023-09-30T17:08:04;18.20;99.90
19561;DHT22;9927;47.792;10.616;2023-09-30T17:10:33;18.30;99.90
19561;DHT22;9927;47.792;10.616;2023-09-30T17:13:01;18.30;99.90
19561;DHT22;9927;47.792;10.616;2023-09-30T17:15:28;18.30;99.90
19561;DHT22;9927;47.792;10.616;2023-09-30T17:17:55;18.30;99.90
19561;DHT22;9927;47.792;10.616;2023-09-30T17:20:24;18.20;99.90
19561;DHT22;9927;47.792;10.616;2023-09-30T17:22:51;18.20;99.90
19561;DHT22;9927;47.792;10.616;2023-09-30T17:25:18;18.20;99.90
19561;DHT22;9927;47.792;10.616;2023-09-30T17:27:46;18.20;99.90
19561;DHT22;9927;47.792;10.616;2023-09-30T17:30:13;18.20;99.90
19561;DHT22;9927;47.792;10.616;2023-09-30T17:32:54;18.10;99.90
19561;DHT22;9927;47.792;10.616;2023-09-30T17:35:22;18.10;99.90
19561;DHT22;9927;47.792;10.616;2023-09-30T17:37:49;18.10;99.90
19561;DHT22;9927;47.792;10.616;2023-09-30T17:40:17;18.00;99.90
19561;DHT22;9927;47.792;10.616;2023-09-30T17:42:44;17.90;99.90
19561;DHT22;9927;47.792;10.616;2023-09-30T17:45:11;17.90;99.90
19561;DHT22;9927;47.792;10.616;2023-09-30T17:47:39;17.90;99.90
19561;DHT22;9927;47.792;10.616;2023-09-30T17:50:07;17.90;99.90
19561;DHT22;9927;47.792;10.616;2023-09-30T17:52:35;17.90;99.90
19561;DHT22;9927;47.792;10.616;2023-09-30T17:55:02;17.80;99.90
19561;DHT22;9927;47.792;10.616;2023-09-30T17:57:30;17.80;99.90
19561;DHT22;9927;47.792;10.616;2023-09-30T17:59:58;17.80;99.90
19561;DHT22;9927;47.792;10.616;2023-09-30T18:02:26;17.80;99.90
19561;DHT22;9927;47.792;10.616;2023-09-30T18:04:53;17.80;99.90
19561;DHT22;9927;47.792;10.616;2023-09-30T18:07:23;17.60;99.90
19561;DHT22;9927;47.792;10.616;2023-09-30T18:09:51;17.60;99.90
19561;DHT22;9927;47.792;10.616;2023-09-30T18:12:18;17.60;99.90
19561;DHT22;9927;47.792;10.616;2023-09-30T18:14:45;17.50;99.90
19561;DHT22;9927;47.792;10.616;2023-09-30T18:17:13;17.40;99.90
19561;DHT22;9927;47.792;10.616;2023-09-30T18:19:41;17.30;99.90
19561;DHT22;9927;47.792;10.616;2023-09-30T18:22:08;17.20;99.90
19561;DHT22;9927;47.792;10.616;2023-09-30T18:24:36;17.20;99.90
19561;DHT22;9927;47.792;10.616;2023-09-30T18:27:03;17.10;99.90
19561;DHT22;9927;47.792;10.616;2023-09-30T18:29:31;17.10;99.90
19561;DHT22;9927;47.792;10.616;2023-09-30T18:31:58;16.90;99.90
19561;DHT22;9927;47.792;10.616;2023-09-30T18:34:25;16.80;99.90
19561;DHT22;9927;47.792;10.616;2023-09-30T18:36:53;16.70;99.90
19561;DHT22;9927;47.792;10.616;2023-09-30T18:39:20;16.70;99.90
19561;DHT22;9927;47.792;10.616;2023-09-30T18:41:52;16.60;99.90
19561;DHT22;9927;47.792;10.616;2023-09-30T18:44:20;16.60;99.90
19561;DHT22;9927;47.792;10.616;2023-09-30T18:46:47;16.50;99.90
19561;DHT22;9927;47.792;10.616;2023-09-30T18:49:18;16.40;99.90
19561;DHT22;9927;47.792;10.616;2023-09-30T18:51:46;16.40;99.90
19561;DHT22;9927;47.792;10.616;2023-09-30T18:54:13;16.40;99.90
19561;DHT22;9927;47.792;10.616;2023-09-30T18:56:42;16.30;99.90